createdAt,value
2019-02-02T00:01:47.594Z,3.20
2019-02-02T00:04:17.630Z,3.20
2019-02-02T00:06:46.542Z,3.30
2019-02-02T00:09:15.483Z,3.40
2019-02-02T00:11:44.246Z,3.40
2019-02-02T00:14:13.897Z,3.40
2019-02-02T00:16:42.706Z,3.40
2019-02-02T00:19:11.602Z,3.30
2019-02-02T00:21:40.733Z,3.30
2019-02-02T00:24:09.580Z,3.30
2019-02-02T00:26:38.330Z,3.30
2019-02-02T00:29:09.478Z,3.20
2019-02-02T00:31:38.363Z,3.20
2019-02-02T00:34:07.194Z,3.20
2019-02-02T00:36:36.120Z,3.30
2019-02-02T00:39:08.739Z,3.30
2019-02-02T00:41:37.723Z,3.30
2019-02-02T00:44:06.434Z,3.30
2019-02-02T00:46:35.253Z,3.40
2019-02-02T00:49:06.995Z,3.40
2019-02-02T00:51:56.960Z,3.40
2019-02-02T00:54:25.930Z,3.40
2019-02-02T00:56:54.815Z,3.50
2019-02-02T00:59:23.603Z,3.50
2019-02-02T01:01:52.555Z,3.50
2019-02-02T01:04:21.425Z,3.50
2019-02-02T01:06:50.316Z,3.50
2019-02-02T01:09:22.235Z,3.50
2019-02-02T01:11:50.968Z,3.50
2019-02-02T01:14:20.954Z,3.60
2019-02-02T01:16:49.930Z,3.70
2019-02-02T01:19:19.117Z,3.60
2019-02-02T01:21:48.050Z,3.60
2019-02-02T01:24:16.825Z,3.60
2019-02-02T01:26:45.558Z,3.60
2019-02-02T01:29:14.400Z,3.60
2019-02-02T01:31:43.402Z,3.60
2019-02-02T01:34:12.193Z,3.60
2019-02-02T01:36:41.040Z,3.60
2019-02-02T01:39:09.818Z,3.60
2019-02-02T01:41:38.710Z,3.60
2019-02-02T01:44:07.647Z,3.60
2019-02-02T01:46:36.462Z,3.60
2019-02-02T01:49:05.427Z,3.60
2019-02-02T01:51:34.162Z,3.60
2019-02-02T01:54:03.046Z,3.60
2019-02-02T01:56:31.945Z,3.60
2019-02-02T01:59:02.930Z,3.60
2019-02-02T02:01:31.770Z,3.60
2019-02-02T02:04:00.554Z,3.60
2019-02-02T02:06:29.414Z,3.60
2019-02-02T02:08:59.891Z,3.60
2019-02-02T02:11:29.981Z,3.50
2019-02-02T02:13:58.723Z,3.50
2019-02-02T02:16:27.659Z,3.50
2019-02-02T02:18:57.358Z,3.50
2019-02-02T02:21:27.411Z,3.50
2019-02-02T02:23:56.265Z,3.50
2019-02-02T02:26:25.061Z,3.50
2019-02-02T02:28:53.799Z,3.40
2019-02-02T02:31:22.669Z,3.40
2019-02-02T02:33:51.434Z,3.40
2019-02-02T02:36:20.247Z,3.40
2019-02-02T02:38:49.048Z,3.30
2019-02-02T02:41:17.899Z,3.40
2019-02-02T02:43:46.732Z,3.40
2019-02-02T02:46:15.574Z,3.40
2019-02-02T02:48:44.349Z,3.40
2019-02-02T02:51:13.210Z,3.40
2019-02-02T02:53:41.967Z,3.50
2019-02-02T02:56:10.838Z,3.40
2019-02-02T02:58:41.532Z,3.40
2019-02-02T03:01:10.063Z,3.40
2019-02-02T03:03:38.932Z,3.40
2019-02-02T03:06:07.886Z,3.50
2019-02-02T03:08:36.686Z,3.40
2019-02-02T03:11:05.478Z,3.50
2019-02-02T03:13:34.206Z,3.50
2019-02-02T03:16:04.706Z,3.60
2019-02-02T03:18:36.290Z,3.60
2019-02-02T03:21:05.131Z,3.60
2019-02-02T03:23:34.067Z,3.50
2019-02-02T03:26:02.979Z,3.50
2019-02-02T03:28:31.878Z,3.60
2019-02-02T03:31:00.776Z,3.50
2019-02-02T03:33:29.864Z,3.50
2019-02-02T03:35:58.808Z,3.50
2019-02-02T03:38:27.671Z,3.50
2019-02-02T03:40:56.665Z,3.50
2019-02-02T03:43:25.469Z,3.50
2019-02-02T03:45:54.344Z,3.40
2019-02-02T03:48:23.179Z,3.40
2019-02-02T03:50:52.126Z,3.40
2019-02-02T03:53:20.898Z,3.40
2019-02-02T03:55:49.751Z,3.40
2019-02-02T03:58:18.581Z,3.40
2019-02-02T04:00:47.528Z,3.40
2019-02-02T04:03:16.398Z,3.40
2019-02-02T04:05:45.219Z,3.40
2019-02-02T04:08:14.050Z,3.40
2019-02-02T04:10:42.851Z,3.40
2019-02-02T04:13:11.831Z,3.50
2019-02-02T04:15:43.014Z,3.40
2019-02-02T04:18:11.960Z,3.30
2019-02-02T04:20:42.388Z,3.30
2019-02-02T04:23:12.097Z,3.40
2019-02-02T04:25:42.689Z,3.50
2019-02-02T04:28:11.514Z,3.50
2019-02-02T04:30:40.423Z,3.40
2019-02-02T04:33:09.449Z,3.40
2019-02-02T04:35:38.409Z,3.40
2019-02-02T04:38:07.370Z,3.20
2019-02-02T04:40:36.162Z,3.20
2019-02-02T04:43:05.158Z,3.20
2019-02-02T04:45:35.747Z,3.20
2019-02-02T04:48:05.718Z,3.30
2019-02-02T04:50:34.550Z,3.30
2019-02-02T04:53:03.516Z,3.30
2019-02-02T04:55:33.944Z,3.30
2019-02-02T04:58:03.019Z,3.30
2019-02-02T05:00:33.829Z,3.30
2019-02-02T05:03:02.755Z,3.30
2019-02-02T05:05:31.578Z,3.30
2019-02-02T05:08:00.399Z,3.30
2019-02-02T05:10:29.594Z,3.30
2019-02-02T05:12:58.642Z,3.30
2019-02-02T05:15:27.452Z,3.30
2019-02-02T05:17:58.262Z,3.30
2019-02-02T05:20:29.401Z,3.30
2019-02-02T05:22:58.477Z,3.30
2019-02-02T05:25:27.350Z,3.30
2019-02-02T05:27:56.392Z,3.30
2019-02-02T05:30:28.131Z,3.30
2019-02-02T05:32:56.914Z,3.30
2019-02-02T05:35:25.709Z,3.30
2019-02-02T05:37:54.514Z,3.20
2019-02-02T05:40:24.981Z,3.20
2019-02-02T05:42:53.827Z,3.30
2019-02-02T05:45:24.440Z,3.30
2019-02-02T05:47:54.438Z,3.30
2019-02-02T05:50:24.558Z,3.20
2019-02-02T05:52:53.262Z,3.20
2019-02-02T05:55:25.129Z,3.20
2019-02-02T05:57:54.671Z,3.30
2019-02-02T06:00:38.388Z,3.30
2019-02-02T06:03:07.185Z,3.20
2019-02-02T06:05:35.960Z,3.20
2019-02-02T06:08:04.708Z,3.20
2019-02-02T06:10:35.418Z,3.10
2019-02-02T06:13:04.312Z,3.10
2019-02-02T06:15:33.163Z,3.10
2019-02-02T06:18:05.046Z,3.10
2019-02-02T06:20:42.151Z,3.20
2019-02-02T06:23:10.926Z,3.20
2019-02-02T06:25:39.787Z,3.10
2019-02-02T06:28:08.722Z,3.20
2019-02-02T06:30:37.457Z,3.20
2019-02-02T06:33:07.700Z,3.20
2019-02-02T06:35:36.587Z,3.20
2019-02-02T06:38:05.608Z,3.20
2019-02-02T06:40:34.351Z,3.30
2019-02-02T06:43:03.086Z,3.30
2019-02-02T06:45:33.947Z,3.30
2019-02-02T06:48:02.843Z,3.30
2019-02-02T06:50:31.713Z,3.30
2019-02-02T06:53:00.823Z,3.30
2019-02-02T06:55:29.715Z,3.30
2019-02-02T06:57:58.569Z,3.30
2019-02-02T07:00:27.412Z,3.40
2019-02-02T07:02:56.224Z,3.30
2019-02-02T07:05:25.026Z,3.30
2019-02-02T07:07:53.762Z,3.30
2019-02-02T07:10:24.165Z,3.30
2019-02-02T07:12:52.985Z,3.30
2019-02-02T07:15:24.003Z,3.30
2019-02-02T07:17:52.790Z,3.40
2019-02-02T07:20:21.568Z,3.40
2019-02-02T07:22:54.142Z,3.40
2019-02-02T07:25:22.895Z,3.40
2019-02-02T07:27:51.778Z,3.40
2019-02-02T07:30:28.622Z,3.40
2019-02-02T07:32:54.386Z,3.40
2019-02-02T07:35:24.619Z,3.40
2019-02-02T07:37:53.350Z,3.40
2019-02-02T07:40:22.163Z,3.40
2019-02-02T07:42:51.029Z,3.40
2019-02-02T07:45:25.151Z,3.50
2019-02-02T07:47:56.246Z,3.50
2019-02-02T07:50:25.107Z,3.40
2019-02-02T07:52:53.960Z,3.40
2019-02-02T07:55:22.804Z,3.40
2019-02-02T08:01:04.544Z,3.50
2019-02-02T08:03:33.351Z,3.50
2019-02-02T08:06:02.230Z,3.50
2019-02-02T08:08:32.301Z,3.50
2019-02-02T08:11:01.222Z,3.50
2019-02-02T08:13:29.972Z,3.50
2019-02-02T08:15:58.790Z,3.50
2019-02-02T08:18:27.599Z,3.60
2019-02-02T08:20:56.378Z,3.60
2019-02-02T08:23:25.331Z,3.60
2019-02-02T08:25:54.103Z,3.70
2019-02-02T08:28:23.092Z,3.70
2019-02-02T08:30:52.901Z,3.70
2019-02-02T08:33:21.825Z,3.70
2019-02-02T08:35:50.674Z,3.70
2019-02-02T08:38:19.434Z,3.80
2019-02-02T08:40:48.172Z,3.80
2019-02-02T08:43:16.910Z,3.70
2019-02-02T08:45:45.662Z,3.80
2019-02-02T08:48:14.414Z,3.90
2019-02-02T08:50:43.175Z,3.90
2019-02-02T08:53:12.002Z,3.90
2019-02-02T08:55:40.750Z,3.90
2019-02-02T08:58:09.462Z,3.80
2019-02-02T09:00:38.296Z,3.80
2019-02-02T09:03:07.131Z,3.80
2019-02-02T09:05:35.877Z,3.90
2019-02-02T09:08:04.868Z,3.90
2019-02-02T09:10:33.614Z,3.90
2019-02-02T09:13:02.382Z,3.90
2019-02-02T09:15:31.142Z,4.00
2019-02-02T09:17:59.991Z,4.00
2019-02-02T09:20:28.816Z,4.10
2019-02-02T09:23:05.779Z,4.20
2019-02-02T09:25:28.549Z,4.30
2019-02-02T09:27:58.763Z,4.20
2019-02-02T09:30:32.751Z,4.30
2019-02-02T09:33:02.481Z,4.30
2019-02-02T09:35:32.552Z,4.40
2019-02-02T09:38:01.378Z,4.50
2019-02-02T09:40:30.192Z,4.60
2019-02-02T09:42:59.066Z,4.50
2019-02-02T09:45:28.088Z,4.50
2019-02-02T09:47:58.652Z,4.50
2019-02-02T09:50:27.520Z,4.30
2019-02-02T09:52:56.396Z,4.40
2019-02-02T09:55:25.215Z,4.50
2019-02-02T09:58:01.856Z,4.60
2019-02-02T10:00:31.784Z,4.70
2019-02-02T10:03:00.506Z,4.80
2019-02-02T10:05:30.094Z,4.90
2019-02-02T10:08:01.391Z,4.80
2019-02-02T10:10:31.903Z,4.70
2019-02-02T10:13:00.913Z,4.70
2019-02-02T10:15:29.698Z,4.80
2019-02-02T10:17:58.564Z,4.70
2019-02-02T10:20:31.399Z,4.70
2019-02-02T10:23:00.256Z,4.80
2019-02-02T10:25:30.158Z,4.90
2019-02-02T10:27:59.063Z,4.90
2019-02-02T10:30:37.312Z,5.00
2019-02-02T10:33:06.294Z,5.10
2019-02-02T10:35:35.094Z,5.10
2019-02-02T10:38:03.954Z,5.00
2019-02-02T10:40:32.774Z,4.90
2019-02-02T10:43:01.600Z,4.90
2019-02-02T10:45:30.358Z,4.90
2019-02-02T10:47:59.078Z,5.00
2019-02-02T10:50:27.951Z,5.10
2019-02-02T10:52:56.811Z,5.10
2019-02-02T10:55:25.620Z,5.10
2019-02-02T10:57:54.372Z,5.20
2019-02-02T11:00:25.310Z,5.20
2019-02-02T11:02:54.158Z,5.10
2019-02-02T11:05:24.630Z,5.10
2019-02-02T11:07:54.607Z,5.10
2019-02-02T11:10:27.593Z,5.10
2019-02-02T11:12:56.414Z,5.20
2019-02-02T11:15:25.247Z,5.20
2019-02-02T11:17:54.145Z,5.40
2019-02-02T11:20:28.701Z,5.40
2019-02-02T11:22:57.600Z,5.40
2019-02-02T11:25:28.107Z,5.10
2019-02-02T11:27:57.024Z,5.10
2019-02-02T11:30:25.806Z,5.10
2019-02-02T11:32:54.718Z,5.10
2019-02-02T11:35:23.603Z,5.10
2019-02-02T11:37:52.687Z,5.20
2019-02-02T11:40:24.465Z,5.20
2019-02-02T11:42:53.424Z,5.30
2019-02-02T11:45:24.361Z,5.30
2019-02-02T11:47:53.099Z,5.20
2019-02-02T11:50:24.084Z,5.30
2019-02-02T11:52:52.855Z,5.10
2019-02-02T11:55:21.715Z,5.10
2019-02-02T11:57:50.506Z,5.10
2019-02-02T12:00:22.074Z,5.00
2019-02-02T12:02:50.815Z,4.90
2019-02-02T12:05:19.756Z,4.90
2019-02-02T12:07:48.738Z,4.90
2019-02-02T12:10:18.986Z,4.80
2019-02-02T12:12:47.756Z,4.80
2019-02-02T12:15:17.553Z,4.80
2019-02-02T12:17:46.356Z,4.90
2019-02-02T12:20:16.493Z,4.80
2019-02-02T12:22:45.282Z,5.00
2019-02-02T12:25:14.182Z,5.10
2019-02-02T12:27:44.155Z,5.00
2019-02-02T12:30:15.646Z,5.00
2019-02-02T12:32:44.558Z,5.00
2019-02-02T12:35:15.865Z,5.10
2019-02-02T12:37:44.608Z,5.10
2019-02-02T12:40:13.727Z,5.10
2019-02-02T12:42:42.562Z,5.10
2019-02-02T12:45:17.451Z,5.10
2019-02-02T12:47:46.235Z,5.10
2019-02-02T12:50:15.106Z,5.10
2019-02-02T12:52:43.873Z,5.00
2019-02-02T12:55:12.690Z,5.00
2019-02-02T12:57:41.471Z,4.90
2019-02-02T13:00:13.598Z,4.90
2019-02-02T13:02:42.517Z,5.00
2019-02-02T13:05:11.334Z,5.20
2019-02-02T13:07:42.866Z,5.30
2019-02-02T13:10:16.394Z,5.30
2019-02-02T13:12:45.255Z,5.40
2019-02-02T13:15:14.058Z,5.40
2019-02-02T13:17:42.815Z,5.40
2019-02-02T13:20:11.885Z,5.50
2019-02-02T13:22:40.734Z,5.70
2019-02-02T13:25:11.907Z,5.60
2019-02-02T13:27:40.614Z,5.60
2019-02-02T13:30:13.053Z,5.70
2019-02-02T13:32:49.412Z,5.70
2019-02-02T13:35:13.473Z,5.70
2019-02-02T13:37:42.358Z,5.70
2019-02-02T13:40:14.120Z,5.70
2019-02-02T13:42:42.973Z,5.80
2019-02-02T13:45:12.366Z,5.80
2019-02-02T13:47:41.235Z,5.70
2019-02-02T13:50:13.733Z,5.60
2019-02-02T13:52:46.343Z,5.70
2019-02-02T13:55:15.302Z,5.70
2019-02-02T13:57:44.138Z,5.80
2019-02-02T14:00:15.691Z,5.90
2019-02-02T14:02:44.402Z,5.90
2019-02-02T14:05:14.474Z,5.90
2019-02-02T14:07:43.249Z,5.80
2019-02-02T14:10:19.728Z,5.80
2019-02-02T14:12:48.264Z,5.90
2019-02-02T14:15:19.882Z,5.90
2019-02-02T14:17:48.713Z,5.90
2019-02-02T14:20:19.336Z,5.70
2019-02-02T14:22:48.194Z,5.60
2019-02-02T14:25:17.654Z,5.50
2019-02-02T14:27:46.439Z,5.60
2019-02-02T14:30:18.203Z,5.50
2019-02-02T14:32:47.004Z,5.50
2019-02-02T14:35:16.830Z,5.60
2019-02-02T14:37:45.742Z,5.60
2019-02-02T14:40:15.457Z,5.60
2019-02-02T14:42:44.318Z,5.60
2019-02-02T14:45:15.085Z,5.50
2019-02-02T14:47:43.997Z,5.50
2019-02-02T14:50:14.961Z,5.50
2019-02-02T14:52:43.682Z,5.40
2019-02-02T14:55:14.692Z,5.40
2019-02-02T14:57:43.602Z,5.50
2019-02-02T15:00:17.550Z,5.50
2019-02-02T15:02:46.384Z,5.40
2019-02-02T15:05:15.574Z,5.30
2019-02-02T15:07:44.558Z,5.30
2019-02-02T15:10:13.430Z,5.50
2019-02-02T15:12:42.331Z,5.50
2019-02-02T15:15:11.888Z,5.40
2019-02-02T15:17:40.743Z,5.50
2019-02-02T15:20:13.677Z,5.50
2019-02-02T15:22:42.430Z,5.50
2019-02-02T15:25:11.228Z,5.40
2019-02-02T15:27:41.049Z,5.50
2019-02-02T15:30:11.882Z,5.40
2019-02-02T15:32:40.778Z,5.50
2019-02-02T15:35:09.530Z,5.50
2019-02-02T15:37:38.283Z,5.60
2019-02-02T15:40:07.752Z,5.50
2019-02-02T15:42:36.570Z,5.50
2019-02-02T15:45:08.239Z,5.60
2019-02-02T15:47:41.161Z,5.60
2019-02-02T15:50:11.846Z,5.50
2019-02-02T15:52:40.674Z,5.40
2019-02-02T15:55:12.111Z,5.40
2019-02-02T15:57:41.002Z,5.40
2019-02-02T16:00:14.024Z,5.40
2019-02-02T16:02:42.815Z,5.20
2019-02-02T16:05:12.842Z,5.20
2019-02-02T16:07:43.527Z,5.20
2019-02-02T16:10:15.536Z,5.10
2019-02-02T16:12:45.659Z,5.10
2019-02-02T16:15:15.892Z,5.10
2019-02-02T16:17:44.626Z,5.10
2019-02-02T16:20:18.864Z,5.10
2019-02-02T16:22:47.664Z,5.10
2019-02-02T16:25:16.506Z,5.10
2019-02-02T16:27:45.259Z,5.10
2019-02-02T16:30:16.809Z,5.10
2019-02-02T16:32:46.014Z,5.10
2019-02-02T16:35:14.823Z,5.10
2019-02-02T16:37:45.981Z,5.10
2019-02-02T16:40:16.809Z,5.10
2019-02-02T16:42:45.538Z,5.10
2019-02-02T16:45:16.126Z,5.10
2019-02-02T16:47:44.924Z,5.10
2019-02-02T16:50:15.367Z,5.00
2019-02-02T16:52:44.242Z,5.00
2019-02-02T16:55:13.108Z,5.00
2019-02-02T16:57:41.939Z,4.90
2019-02-02T17:00:18.619Z,4.90
2019-02-02T17:02:47.397Z,4.90
2019-02-02T17:05:16.212Z,5.00
2019-02-02T17:07:46.330Z,5.00
2019-02-02T17:10:20.855Z,5.10
2019-02-02T17:12:49.713Z,5.00
2019-02-02T17:15:18.433Z,5.00
2019-02-02T17:17:47.186Z,5.00
2019-02-02T17:20:18.504Z,5.00
2019-02-02T17:22:47.337Z,4.90
2019-02-02T17:25:17.554Z,4.90
2019-02-02T17:27:47.386Z,4.80
2019-02-02T17:30:18.226Z,4.90
2019-02-02T17:32:47.240Z,4.90
2019-02-02T17:35:16.150Z,5.00
2019-02-02T17:37:45.398Z,5.00
2019-02-02T17:40:16.987Z,5.00
2019-02-02T17:42:47.400Z,5.10
2019-02-02T17:45:17.497Z,5.10
2019-02-02T17:47:46.435Z,5.10
2019-02-02T17:50:17.111Z,5.20
2019-02-02T17:52:45.855Z,5.20
2019-02-02T17:55:14.649Z,5.20
2019-02-02T17:57:43.426Z,5.10
2019-02-02T18:00:17.438Z,5.10
2019-02-02T18:02:46.179Z,5.10
2019-02-02T18:05:14.915Z,5.10
2019-02-02T18:07:43.771Z,5.00
2019-02-02T18:10:14.018Z,5.00
2019-02-02T18:12:42.811Z,4.90
2019-02-02T18:15:12.722Z,4.90
2019-02-02T18:17:43.428Z,4.80
2019-02-02T18:20:13.350Z,4.80
2019-02-02T18:22:44.226Z,4.70
2019-02-02T18:25:13.602Z,4.70
2019-02-02T18:27:42.419Z,4.70
2019-02-02T18:30:14.454Z,4.80
2019-02-02T18:32:43.273Z,4.80
2019-02-02T18:35:12.055Z,4.80
2019-02-02T18:37:40.975Z,4.80
2019-02-02T18:40:11.190Z,4.80
2019-02-02T18:42:39.926Z,4.70
2019-02-02T18:45:09.907Z,4.70
2019-02-02T18:47:38.673Z,4.70
2019-02-02T18:50:10.414Z,4.70
2019-02-02T18:52:39.218Z,4.60
2019-02-02T18:55:13.179Z,4.60
2019-02-02T18:57:41.314Z,4.60
2019-02-02T19:00:13.734Z,4.60
2019-02-02T19:02:45.440Z,4.60
2019-02-02T19:05:14.910Z,4.60
2019-02-02T19:07:43.636Z,4.60
2019-02-02T19:10:15.026Z,4.50
2019-02-02T19:12:43.767Z,4.60
2019-02-02T19:15:12.755Z,4.60
2019-02-02T19:17:41.530Z,4.70
2019-02-02T19:20:13.437Z,4.60
2019-02-02T19:22:42.209Z,4.60
2019-02-02T19:25:10.971Z,4.60
2019-02-02T19:27:45.090Z,4.60
2019-02-02T19:30:17.142Z,4.60
2019-02-02T19:32:47.505Z,4.60
2019-02-02T19:35:16.703Z,4.60
2019-02-02T19:37:45.543Z,4.60
2019-02-02T19:40:14.593Z,4.50
2019-02-02T19:42:46.560Z,4.60
2019-02-02T19:45:17.378Z,4.60
2019-02-02T19:47:46.246Z,4.60
2019-02-02T19:50:17.447Z,4.60
2019-02-02T19:52:46.226Z,4.70
2019-02-02T19:55:15.187Z,4.70
2019-02-02T19:57:44.170Z,4.80
2019-02-02T20:00:22.237Z,4.80
2019-02-02T20:02:51.374Z,4.80
2019-02-02T20:05:28.231Z,4.80
2019-02-02T20:07:50.556Z,4.80
2019-02-02T20:10:19.744Z,4.70
2019-02-02T20:12:48.590Z,4.70
2019-02-02T20:15:19.166Z,4.80
2019-02-02T20:17:47.955Z,4.80
2019-02-02T20:20:18.387Z,4.80
2019-02-02T20:22:47.253Z,4.80
2019-02-02T20:25:16.144Z,4.80
2019-02-02T20:27:44.926Z,4.80
2019-02-02T20:30:16.065Z,4.80
2019-02-02T20:32:44.814Z,4.80
2019-02-02T20:35:13.618Z,4.80
2019-02-02T20:37:42.446Z,4.60
2019-02-02T20:40:13.537Z,4.60
2019-02-02T20:42:42.277Z,4.60
2019-02-02T20:45:13.374Z,4.50
2019-02-02T20:47:42.203Z,4.60
2019-02-02T20:50:13.757Z,4.60
2019-02-02T20:52:47.405Z,4.50
2019-02-02T20:55:18.715Z,4.50
2019-02-02T20:57:47.603Z,4.50
2019-02-02T21:00:19.783Z,4.50
2019-02-02T21:02:48.614Z,4.50
2019-02-02T21:05:17.455Z,4.50
2019-02-02T21:07:46.382Z,4.50
2019-02-02T21:10:17.291Z,4.50
2019-02-02T21:12:46.127Z,4.60
2019-02-02T21:15:14.932Z,4.50
2019-02-02T21:17:43.994Z,4.50
2019-02-02T21:20:15.272Z,4.50
2019-02-02T21:22:44.160Z,4.40
2019-02-02T21:25:13.393Z,4.40
2019-02-02T21:27:42.372Z,4.40
2019-02-02T21:30:16.964Z,4.50
2019-02-02T21:32:46.190Z,4.40
2019-02-02T21:35:15.161Z,4.40
2019-02-02T21:37:51.444Z,4.40
2019-02-02T21:40:24.275Z,4.40
2019-02-02T21:42:53.099Z,4.40
2019-02-02T21:45:23.383Z,4.40
2019-02-02T21:47:52.604Z,4.40
2019-02-02T21:50:22.423Z,4.40
2019-02-02T21:52:51.526Z,4.40
2019-02-02T21:55:24.917Z,4.40
2019-02-02T21:57:53.710Z,4.40
2019-02-02T22:00:34.152Z,4.40
2019-02-02T22:03:03.014Z,4.40
2019-02-02T22:05:31.954Z,4.30
2019-02-02T22:08:00.848Z,4.20
2019-02-02T22:10:29.561Z,4.20
2019-02-02T22:12:58.790Z,4.30
2019-02-02T22:15:27.614Z,5.20
2019-02-02T22:17:58.066Z,4.20
2019-02-02T22:20:26.817Z,4.20
2019-02-02T22:22:55.788Z,4.10
2019-02-02T22:25:26.883Z,4.10
2019-02-02T22:27:55.691Z,4.10
2019-02-02T22:30:30.459Z,4.00
2019-02-02T22:32:59.283Z,4.00
2019-02-02T22:35:28.138Z,3.90
2019-02-02T22:37:57.471Z,3.90
2019-02-02T22:40:26.989Z,3.90
2019-02-02T22:42:55.864Z,3.90
2019-02-02T22:45:24.850Z,3.90
2019-02-02T22:47:54.158Z,3.90
2019-02-02T22:50:24.746Z,4.00
2019-02-02T22:52:53.688Z,4.00
2019-02-02T22:55:22.593Z,4.00
2019-02-02T22:57:54.044Z,4.00
2019-02-02T23:01:09.612Z,4.00
2019-02-02T23:03:47.801Z,4.00
2019-02-02T23:06:38.919Z,4.10
2019-02-02T23:09:57.763Z,4.10
2019-02-02T23:12:38.646Z,4.00
2019-02-02T23:15:46.361Z,4.00
2019-02-02T23:18:15.415Z,4.10
2019-02-02T23:20:46.054Z,4.00
2019-02-02T23:23:15.470Z,4.00
2019-02-02T23:25:47.447Z,4.00
2019-02-02T23:28:16.202Z,4.00
2019-02-02T23:30:46.642Z,4.00
2019-02-02T23:33:15.502Z,3.90
2019-02-02T23:35:44.379Z,3.90
2019-02-02T23:38:13.584Z,3.90
2019-02-02T23:40:43.434Z,3.80
2019-02-02T23:43:15.230Z,3.80
2019-02-02T23:45:48.094Z,3.80
2019-02-02T23:48:16.906Z,3.80
2019-02-02T23:50:46.027Z,3.70
2019-02-02T23:53:14.761Z,3.80
2019-02-02T23:55:43.641Z,3.80
2019-02-02T23:58:14.118Z,3.80
